Time;durP1;ratioP1;P1;durP2;ratioP2;P2;SDS_P1;SDS_P2;PMS_P1;PMS_P2;Temp;Humidity;BMP_temperature;BMP_pressure;BME280_temperature;BME280_humidity;BME280_pressure;Samples;Min_cycle;Max_cycle;Signal;HPM_P1;HPM_P2
2021/08/17 00:00:00;;;;;;;1999.90;999.90;;;;;;;20.01;53.07;95416.84;4989679;28;20199;-72
2021/08/17 00:02:28;;;;;;;1999.90;999.90;;;;;;;19.59;53.98;95415.06;4990027;28;20297;-72
2021/08/17 00:04:56;;;;;;;1999.90;999.90;;;;;;;19.51;54.25;95407.41;4989798;28;20199;-73
2021/08/17 00:07:24;;;;;;;1999.90;999.90;;;;;;;19.46;54.98;95405.06;4989822;28;20204;-72
2021/08/17 00:09:51;;;;;;;1999.90;999.90;;;;;;;19.29;55.26;95408.88;4988429;28;20207;-72
2021/08/17 00:12:18;;;;;;;1999.90;999.90;;;;;;;19.23;56.19;95418.94;4989514;28;20203;-74
2021/08/17 00:14:45;;;;;;;1999.90;999.90;;;;;;;18.76;59.71;95416.56;4989760;28;20249;-73
2021/08/17 00:17:13;;;;;;;1999.90;999.90;;;;;;;18.54;60.28;95419.09;4989480;28;20199;-73
2021/08/17 00:19:43;;;;;;;1999.90;999.90;;;;;;;18.33;59.68;95419.44;4989193;28;20665;-74
2021/08/17 00:22:11;;;;;;;1999.90;999.90;;;;;;;18.30;60.28;95430.63;4987244;28;20295;-74
2021/08/17 00:24:38;;;;;;;1999.90;999.90;;;;;;;18.10;60.97;95429.03;4989495;28;20195;-72
2021/08/17 00:27:06;;;;;;;1999.90;999.90;;;;;;;18.14;60.47;95422.00;4989640;28;20585;-74
2021/08/17 00:29:33;;;;;;;1999.90;999.90;;;;;;;18.13;60.59;95423.13;4989189;28;20206;-74
2021/08/17 00:32:00;;;;;;;1999.90;999.90;;;;;;;18.00;62.36;95423.22;4989372;28;20586;-73
2021/08/17 00:34:27;;;;;;;1999.90;999.90;;;;;;;17.93;63.02;95425.66;4989028;28;20628;-73
2021/08/17 00:36:54;;;;;;;1999.90;999.90;;;;;;;17.77;62.99;95430.19;4989317;28;20199;-73
2021/08/17 00:39:23;;;;;;;1999.90;999.90;;;;;;;17.62;62.20;95423.06;4989232;28;20762;-73
2021/08/17 00:41:50;;;;;;;1999.90;999.90;;;;;;;17.66;61.31;95428.41;4989078;28;20203;-72
2021/08/17 00:44:21;;;;;;;1999.90;999.90;;;;;;;17.75;60.83;95421.88;4988991;28;20260;-73
2021/08/17 00:46:48;;;;;;;1999.90;999.90;;;;;;;17.76;59.79;95428.66;4986679;28;20248;-73
2021/08/17 00:49:15;;;;;;;1999.90;999.90;;;;;;;17.92;59.82;95426.81;5006729;28;20224;-72
2021/08/17 00:51:43;;;;;;;1999.90;999.90;;;;;;;17.99;59.14;95420.91;5091600;28;20195;-72
2021/08/17 00:54:10;;;;;;;1999.90;999.90;;;;;;;18.06;59.26;95418.47;5091703;28;20202;-73
2021/08/17 00:56:39;;;;;;;1999.90;999.90;;;;;;;18.08;60.38;95412.88;5091082;28;20584;-72
2021/08/17 00:59:07;;;;;;;1999.90;999.90;;;;;;;18.06;60.84;95428.97;5091750;28;20211;-73
2021/08/17 01:01:34;;;;;;;1999.90;999.90;;;;;;;18.01;61.09;95426.59;5091662;28;20207;-73
2021/08/17 01:04:02;;;;;;;1999.90;999.90;;;;;;;17.98;61.47;95420.16;5057047;28;20742;-72
2021/08/17 01:06:31;;;;;;;1999.90;999.90;;;;;;;17.92;61.50;95421.53;4972407;28;20212;-74
2021/08/17 01:08:58;;;;;;;1999.90;999.90;;;;;;;17.62;64.15;95426.47;4969622;28;20877;-73
2021/08/17 01:11:25;;;;;;;1999.90;999.90;;;;;;;17.51;64.92;95425.41;4969383;28;20295;-73
2021/08/17 01:13:54;;;;;;;1999.90;999.90;;;;;;;17.35;66.39;95423.88;4969630;28;20208;-73
2021/08/17 01:16:21;;;;;;;1999.90;999.90;;;;;;;17.19;67.95;95421.22;4969493;28;20741;-74
2021/08/17 01:18:48;;;;;;;1999.90;999.90;;;;;;;17.21;68.65;95417.16;4969194;28;20204;-74
2021/08/17 01:21:16;;;;;;;1999.90;999.90;;;;;;;17.17;69.32;95418.94;4969348;28;20200;-74
2021/08/17 01:23:44;;;;;;;1999.90;999.90;;;;;;;17.17;69.68;95421.56;4969118;28;20208;-74
2021/08/17 01:26:13;;;;;;;1999.90;999.90;;;;;;;17.09;69.80;95417.22;4969242;28;20246;-73
2021/08/17 01:28:40;;;;;;;1999.90;999.90;;;;;;;16.94;69.93;95415.31;4969365;28;20700;-74
2021/08/17 01:31:09;;;;;;;1999.90;999.90;;;;;;;16.98;68.47;95418.81;4969295;28;20257;-74
2021/08/17 01:33:37;;;;;;;1999.90;999.90;;;;;;;16.99;67.28;95417.69;4969234;28;20206;-72
2021/08/17 01:36:05;;;;;;;1999.90;999.90;;;;;;;16.65;68.83;95413.78;4968836;28;20232;-72
2021/08/17 01:38:33;;;;;;;1999.90;999.90;;;;;;;16.39;69.62;95418.63;4969071;28;20200;-72
2021/08/17 01:41:00;;;;;;;1999.90;999.90;;;;;;;16.22;71.25;95419.66;4968830;28;20226;-71
2021/08/17 01:43:28;;;;;;;1999.90;999.90;;;;;;;16.20;71.19;95419.22;4968690;28;20204;-72
2021/08/17 01:45:56;;;;;;;1999.90;999.90;;;;;;;16.21;71.40;95415.53;4968854;28;20238;-72
2021/08/17 01:48:26;;;;;;;1999.90;999.90;;;;;;;15.98;73.08;95422.31;4968507;28;20253;-73
2021/08/17 01:50:53;;;;;;;1999.90;999.90;;;;;;;16.17;72.02;95425.13;4986930;28;20210;-74
2021/08/17 01:53:22;;;;;;;1999.90;999.90;;;;;;;16.30;71.64;95423.25;4988251;28;20218;-71
2021/08/17 01:55:49;;;;;;;1999.90;999.90;;;;;;;16.24;71.85;95422.72;4988114;28;20341;-72
2021/08/17 01:58:16;;;;;;;1999.90;999.90;;;;;;;16.20;71.39;95419.22;4987973;28;20207;-72
2021/08/17 02:00:46;;;;;;;1999.90;999.90;;;;;;;16.30;71.59;95423.25;4985058;28;20294;-72
2021/08/17 02:03:13;;;;;;;1999.90;999.90;;;;;;;16.30;71.46;95424.00;4983938;28;20872;-72
2021/08/17 02:05:40;;;;;;;1999.90;999.90;;;;;;;16.27;71.51;95408.97;4974607;28;20204;-72
2021/08/17 02:08:09;;;;;;;1999.90;999.90;;;;;;;16.29;71.31;95405.97;4967486;28;20234;-72
2021/08/17 02:10:37;;;;;;;1999.90;999.90;;;;;;;16.30;71.38;95408.28;4967980;28;20208;-72
2021/08/17 02:13:05;;;;;;;1999.90;999.90;;;;;;;16.29;71.32;95406.75;4970408;28;20200;-73
2021/08/17 02:15:32;;;;;;;1999.90;999.90;;;;;;;16.11;72.30;95408.09;4987755;28;20219;-72
2021/08/17 02:18:01;;;;;;;1999.90;999.90;;;;;;;15.98;72.92;95406.59;4987933;28;20276;-72
2021/08/17 02:20:28;;;;;;;1999.90;999.90;;;;;;;15.92;73.27;95402.66;4995817;28;20214;-72
2021/08/17 02:22:55;;;;;;;1999.90;999.90;;;;;;;16.06;72.55;95405.72;4987434;28;20286;-72
2021/08/17 02:25:23;;;;;;;1999.90;999.90;;;;;;;15.92;71.42;95408.66;4987337;28;20239;-72
2021/08/17 02:27:50;;;;;;;1999.90;999.90;;;;;;;16.04;71.61;95417.63;5001859;28;20198;-72
2021/08/17 02:30:17;;;;;;;1999.90;999.90;;;;;;;15.97;71.61;95415.53;5007064;28;20279;-72
2021/08/17 02:32:44;;;;;;;1999.90;999.90;;;;;;;16.08;71.61;95421.88;5006776;28;20202;-72
2021/08/17 02:35:13;;;;;;;1999.90;999.90;;;;;;;16.15;71.94;95421.31;5007120;28;20203;-72
2021/08/17 02:37:41;;;;;;;1999.90;999.90;;;;;;;16.16;71.60;95420.22;5006864;28;20202;-72
2021/08/17 02:40:09;;;;;;;1999.90;999.90;;;;;;;16.19;71.19;95425.56;4994311;28;20195;-71
2021/08/17 02:42:37;;;;;;;1999.90;999.90;;;;;;;16.16;70.66;95418.38;4986708;28;20290;-72
2021/08/17 02:45:05;;;;;;;1999.90;999.90;;;;;;;16.26;68.80;95412.66;4986880;28;20210;-74
2021/08/17 02:47:33;;;;;;;1999.90;999.90;;;;;;;16.26;69.15;95410.03;4987543;28;20256;-73
2021/08/17 02:50:00;;;;;;;1999.90;999.90;;;;;;;16.15;71.44;95414.22;4986796;28;20324;-72
2021/08/17 02:52:29;;;;;;;1999.90;999.90;;;;;;;16.19;70.62;95409.81;4987465;28;20283;-74
2021/08/17 02:54:56;;;;;;;1999.90;999.90;;;;;;;16.15;71.15;95411.59;4986935;28;20748;-74
2021/08/17 02:57:24;;;;;;;1999.90;999.90;;;;;;;16.22;71.37;95411.81;4987185;28;20227;-73
2021/08/17 02:59:51;;;;;;;1999.90;999.90;;;;;;;16.13;72.07;95410.41;4987154;28;20282;-74
2021/08/17 03:02:18;;;;;;;1999.90;999.90;;;;;;;16.02;73.63;95417.94;4971673;28;20208;-72
2021/08/17 03:04:45;;;;;;;1999.90;999.90;;;;;;;15.62;76.49;95415.22;4972362;28;20206;-72
2021/08/17 03:07:12;;;;;;;1999.90;999.90;;;;;;;15.66;77.23;95407.47;4987192;28;20203;-71
2021/08/17 03:09:40;;;;;;;1999.90;999.90;;;;;;;15.71;77.24;95407.25;4979036;28;20226;-72
2021/08/17 03:12:08;;;;;;;1999.90;999.90;;;;;;;15.68;76.73;95421.78;4986983;28;20298;-71
2021/08/17 03:14:35;;;;;;;1999.90;999.90;;;;;;;15.68;75.36;95410.53;4984841;28;20207;-71
2021/08/17 03:17:02;;;;;;;1999.90;999.90;;;;;;;15.75;74.20;95408.13;4986419;28;20259;-70
2021/08/17 03:19:29;;;;;;;1999.90;999.90;;;;;;;15.86;73.13;95409.22;4986966;28;20293;-71
2021/08/17 03:21:56;;;;;;;1999.90;999.90;;;;;;;15.80;72.05;95410.50;4986522;28;20271;-71
2021/08/17 03:24:23;;;;;;;1999.90;999.90;;;;;;;15.74;72.66;95404.72;4986404;28;20219;-71
2021/08/17 03:26:52;;;;;;;1999.90;999.90;;;;;;;15.65;74.31;95405.94;4977297;28;20207;-71
2021/08/17 03:29:20;;;;;;;1999.90;999.90;;;;;;;15.60;75.13;95417.38;4986698;28;20207;-71
2021/08/17 03:31:47;;;;;;;1999.90;999.90;;;;;;;15.54;75.51;95413.47;4986656;28;20295;-72
2021/08/17 03:34:14;;;;;;;1999.90;999.90;;;;;;;15.45;76.13;95416.16;4974075;28;20303;-72
2021/08/17 03:36:41;;;;;;;1999.90;999.90;;;;;;;15.34;76.42;95415.03;4967425;28;20226;-72
2021/08/17 03:39:08;;;;;;;1999.90;999.90;;;;;;;15.33;76.68;95420.59;4967438;28;20196;-71
2021/08/17 03:41:35;;;;;;;1999.90;999.90;;;;;;;15.20;76.92;95422.41;4967063;28;20204;-72
2021/08/17 03:44:04;;;;;;;1999.90;999.90;;;;;;;14.96;77.98;95414.50;4967475;28;20276;-71
2021/08/17 03:46:31;;;;;;;1999.90;999.90;;;;;;;15.16;77.30;95426.78;4967231;28;20196;-72
2021/08/17 03:48:58;;;;;;;1999.90;999.90;;;;;;;15.19;76.76;95426.16;4969880;28;20235;-72
2021/08/17 03:51:25;;;;;;;1999.90;999.90;;;;;;;15.03;77.15;95426.00;4986755;28;20236;-72
2021/08/17 03:53:53;;;;;;;1999.90;999.90;;;;;;;14.99;77.34;95426.97;4986454;28;20203;-72
2021/08/17 03:56:20;;;;;;;1999.90;999.90;;;;;;;15.04;77.44;95418.91;4986278;28;20227;-68
2021/08/17 03:58:47;;;;;;;1999.90;999.90;;;;;;;15.00;77.94;95424.00;4985281;28;20298;-72
2021/08/17 04:01:17;;;;;;;1999.90;999.90;;;;;;;15.09;77.62;95419.44;4986656;28;20264;-71
2021/08/17 04:03:45;;;;;;;1999.90;999.90;;;;;;;15.27;76.65;95416.66;4972919;28;20265;-72
2021/08/17 04:06:12;;;;;;;1999.90;999.90;;;;;;;15.36;75.43;95420.72;4984208;28;20227;-74
2021/08/17 04:08:39;;;;;;;1999.90;999.90;;;;;;;15.37;77.01;95418.88;4984930;28;20698;-72
2021/08/17 04:11:06;;;;;;;1999.90;999.90;;;;;;;15.46;76.70;95412.44;4984846;28;20207;-72
2021/08/17 04:13:33;;;;;;;1999.90;999.90;;;;;;;15.73;76.45;95418.19;4983819;28;20288;-72
2021/08/17 04:16:00;;;;;;;1999.90;999.90;;;;;;;16.03;75.11;95422.09;4984076;28;20223;-72
2021/08/17 04:18:30;;;;;;;1999.90;999.90;;;;;;;16.46;73.64;95420.72;4982709;28;20215;-72
2021/08/17 04:20:58;;;;;;;1999.90;999.90;;;;;;;16.78;72.61;95417.16;4985804;28;20235;-72
2021/08/17 04:23:25;;;;;;;1999.90;999.90;;;;;;;17.21;70.28;95419.78;4987835;28;20211;-72
2021/08/17 04:25:52;;;;;;;1999.90;999.90;;;;;;;17.59;68.01;95418.47;4987873;28;20229;-72
2021/08/17 04:28:19;;;;;;;1999.90;999.90;;;;;;;17.96;66.85;95418.97;4988815;28;20214;-72
2021/08/17 04:30:46;;;;;;;1999.90;999.90;;;;;;;18.27;65.40;95418.94;4989533;28;20203;-71
2021/08/17 04:33:13;;;;;;;1999.90;999.90;;;;;;;18.58;63.96;95419.97;4989865;28;20195;-73
2021/08/17 04:35:42;;;;;;;1999.90;999.90;;;;;;;18.90;62.77;95411.56;4989714;28;20229;-73
2021/08/17 04:38:09;;;;;;;1999.90;999.90;;;;;;;19.30;61.11;95413.03;4989440;28;20203;-73
2021/08/17 04:40:36;;;;;;;1999.90;999.90;;;;;;;19.50;61.05;95417.19;4989284;28;20286;-73
2021/08/17 04:43:03;;;;;;;1999.90;999.90;;;;;;;19.70;61.46;95420.50;4989085;28;20195;-73
2021/08/17 04:45:30;;;;;;;1999.90;999.90;;;;;;;19.99;60.51;95421.69;4989219;28;20205;-73
2021/08/17 04:47:57;;;;;;;1999.90;999.90;;;;;;;20.13;59.96;95421.91;4989062;28;20336;-73
2021/08/17 04:50:25;;;;;;;1999.90;999.90;;;;;;;20.44;59.72;95415.56;4988768;28;20241;-72
2021/08/17 04:52:53;;;;;;;1999.90;999.90;;;;;;;20.74;59.02;95418.19;4989368;28;20200;-72
2021/08/17 04:55:21;;;;;;;1999.90;999.90;;;;;;;20.59;58.66;95425.19;4989013;28;20294;-72
2021/08/17 04:57:50;;;;;;;1999.90;999.90;;;;;;;20.27;60.97;95430.03;4988871;28;20223;-72
2021/08/17 05:00:18;;;;;;;1999.90;999.90;;;;;;;20.40;61.94;95420.81;4989110;28;20740;-72
2021/08/17 05:02:45;;;;;;;1999.90;999.90;;;;;;;20.28;63.11;95418.34;4988881;28;20200;-73
2021/08/17 05:05:13;;;;;;;1999.90;999.90;;;;;;;20.04;64.73;95416.88;4988593;28;21021;-73
2021/08/17 05:07:40;;;;;;;1999.90;999.90;;;;;;;19.85;65.77;95424.88;4989097;28;20199;-72
2021/08/17 05:10:11;;;;;;;1999.90;999.90;;;;;;;19.83;66.35;95418.44;4988622;28;20256;-72
2021/08/17 05:12:38;;;;;;;1999.90;999.90;;;;;;;19.71;67.27;95416.75;4988739;28;20664;-73
2021/08/17 05:15:07;;;;;;;1999.90;999.90;;;;;;;19.79;67.09;95418.38;4988506;28;20257;-73
2021/08/17 05:17:36;;;;;;;1999.90;999.90;;;;;;;19.66;66.58;95417.81;4988548;28;20606;-73
2021/08/17 05:20:03;;;;;;;1999.90;999.90;;;;;;;19.48;66.57;95422.03;4988611;28;20202;-74
2021/08/17 05:22:31;;;;;;;1999.90;999.90;;;;;;;19.54;67.27;95422.50;4988417;28;20202;-73
2021/08/17 05:24:58;;;;;;;1999.90;999.90;;;;;;;19.60;66.12;95431.66;4988676;28;20643;-73
2021/08/17 05:27:27;;;;;;;1999.90;999.90;;;;;;;19.61;66.49;95428.66;4988563;28;21024;-73
2021/08/17 05:29:55;;;;;;;1999.90;999.90;;;;;;;19.81;65.14;95428.59;4988519;28;20199;-72
2021/08/17 05:32:23;;;;;;;1999.90;999.90;;;;;;;20.01;63.05;95430.03;4988221;28;20256;-72
2021/08/17 05:34:50;;;;;;;1999.90;999.90;;;;;;;20.29;62.49;95430.44;4988369;28;20204;-72
2021/08/17 05:37:17;;;;;;;1999.90;999.90;;;;;;;20.54;61.73;95438.72;4988661;28;20702;-72
2021/08/17 05:39:45;;;;;;;1999.90;999.90;;;;;;;20.58;59.72;95439.50;4988157;28;20199;-72
2021/08/17 05:42:13;;;;;;;1999.90;999.90;;;;;;;20.73;59.08;95437.81;4988560;28;20559;-71
2021/08/17 05:44:44;;;;;;;1999.90;999.90;;;;;;;20.86;58.16;95444.41;4988178;28;20531;-72
2021/08/17 05:47:13;;;;;;;1999.90;999.90;;;;;;;21.05;57.47;95434.44;4988209;28;20183;-73
2021/08/17 05:49:40;;;;;;;1999.90;999.90;;;;;;;21.15;57.12;95438.34;4988023;28;20347;-72
2021/08/17 05:52:08;;;;;;;1999.90;999.90;;;;;;;21.32;56.53;95437.75;4987938;28;20626;-72
2021/08/17 05:54:37;;;;;;;1999.90;999.90;;;;;;;21.58;54.75;95438.72;4988008;28;20335;-72
2021/08/17 05:57:05;;;;;;;1999.90;999.90;;;;;;;21.68;55.18;95438.06;4988024;28;20227;-73
2021/08/17 05:59:33;;;;;;;1999.90;999.90;;;;;;;21.86;56.24;95434.47;4988180;28;20637;-73
2021/08/17 06:02:04;;;;;;;1999.90;999.90;;;;;;;21.97;55.12;95431.91;4988344;28;20203;-73
2021/08/17 06:04:31;;;;;;;1999.90;999.90;;;;;;;22.03;53.36;95433.09;4988221;28;20195;-72
2021/08/17 06:06:59;;;;;;;1999.90;999.90;;;;;;;22.21;53.30;95433.22;4988142;28;20203;-72
2021/08/17 06:09:26;;;;;;;1999.90;999.90;;;;;;;22.31;52.80;95428.00;4987785;28;20310;-72
2021/08/17 06:11:57;;;;;;;1999.90;999.90;;;;;;;22.58;51.39;95428.50;4987927;28;20684;-73
2021/08/17 06:14:24;;;;;;;1999.90;999.90;;;;;;;22.76;50.33;95425.97;4988309;28;20206;-72
2021/08/17 06:16:52;;;;;;;1999.90;999.90;;;;;;;23.01;49.76;95424.13;4987730;28;20223;-73
2021/08/17 06:19:20;;;;;;;1999.90;999.90;;;;;;;23.26;49.36;95420.81;4988014;28;20198;-73
2021/08/17 06:21:48;;;;;;;1999.90;999.90;;;;;;;23.38;48.37;95423.09;4987847;28;20733;-73
2021/08/17 06:24:15;;;;;;;1999.90;999.90;;;;;;;23.44;46.42;95416.28;4987727;28;20195;-73
2021/08/17 06:26:42;;;;;;;1999.90;999.90;;;;;;;23.77;45.73;95415.94;4987994;28;20579;-73
2021/08/17 06:29:09;;;;;;;1999.90;999.90;;;;;;;24.15;44.21;95421.63;4987983;28;20231;-73
2021/08/17 06:31:36;;;;;;;1999.90;999.90;;;;;;;24.37;45.62;95415.91;4987601;28;20199;-73
2021/08/17 06:34:07;;;;;;;1999.90;999.90;;;;;;;24.54;46.23;95417.00;4988082;28;20203;-73
2021/08/17 06:36:36;;;;;;;1999.90;999.90;;;;;;;24.58;43.44;95407.13;4987481;28;20195;-74
2021/08/17 06:39:04;;;;;;;1999.90;999.90;;;;;;;24.49;44.25;95408.66;4987685;28;20582;-72
2021/08/17 06:41:32;;;;;;;1999.90;999.90;;;;;;;24.84;44.04;95403.22;4987351;28;20199;-74
2021/08/17 06:43:59;;;;;;;1999.90;999.90;;;;;;;25.31;39.82;95399.19;4986591;28;20199;-73
2021/08/17 06:46:27;;;;;;;1999.90;999.90;;;;;;;25.54;40.15;95412.72;4987296;28;20434;-74
2021/08/17 06:48:55;;;;;;;1999.90;999.90;;;;;;;25.70;40.78;95402.34;4987615;28;20234;-73
2021/08/17 06:51:22;;;;;;;1999.90;999.90;;;;;;;25.61;40.72;95396.72;4987509;28;20291;-73
2021/08/17 06:53:51;;;;;;;1999.90;999.90;;;;;;;25.84;39.44;95404.16;4987572;28;20207;-73
2021/08/17 06:56:18;;;;;;;1999.90;999.90;;;;;;;26.03;38.90;95405.50;4987549;28;20198;-74
2021/08/17 06:58:45;;;;;;;1999.90;999.90;;;;;;;25.96;40.41;95400.22;4987661;28;20258;-73
2021/08/17 07:01:12;;;;;;;1999.90;999.90;;;;;;;25.91;42.06;95396.09;4987178;28;20671;-74
2021/08/17 07:03:39;;;;;;;1999.90;999.90;;;;;;;26.03;40.09;95400.94;4987369;28;20195;-73
2021/08/17 07:06:06;;;;;;;1999.90;999.90;;;;;;;26.15;39.24;95395.09;4986926;28;20294;-73
2021/08/17 07:08:34;;;;;;;1999.90;999.90;;;;;;;26.30;39.49;95403.00;4986994;28;20614;-72
2021/08/17 07:11:02;;;;;;;1999.90;999.90;;;;;;;26.59;38.53;95398.13;4986944;28;20686;-73
2021/08/17 07:13:29;;;;;;;1999.90;999.90;;;;;;;26.64;38.87;95403.00;4986988;28;20206;-73
2021/08/17 07:15:57;;;;;;;1999.90;999.90;;;;;;;26.33;39.63;95400.31;4987058;28;20203;-72
2021/08/17 07:18:24;;;;;;;1999.90;999.90;;;;;;;26.52;38.90;95402.38;4987151;28;20231;-72
2021/08/17 07:20:52;;;;;;;1999.90;999.90;;;;;;;26.83;39.09;95400.50;4986880;28;20203;-72
2021/08/17 07:23:21;;;;;;;1999.90;999.90;;;;;;;27.08;37.19;95400.19;4987186;28;20206;-72
2021/08/17 07:25:48;;;;;;;1999.90;999.90;;;;;;;27.11;38.62;95396.72;4987221;28;20248;-72
2021/08/17 07:28:17;;;;;;;1999.90;999.90;;;;;;;27.39;37.97;95391.00;4986855;28;20192;-72
2021/08/17 07:30:44;;;;;;;1999.90;999.90;;;;;;;27.59;38.05;95393.03;4986831;28;20207;-73
2021/08/17 07:33:11;;;;;;;1999.90;999.90;;;;;;;27.68;37.40;95391.34;4987062;28;20203;-74
2021/08/17 07:35:39;;;;;;;1999.90;999.90;;;;;;;27.81;36.17;95386.91;4987234;28;20222;-73
2021/08/17 07:38:06;;;;;;;1999.90;999.90;;;;;;;27.91;36.97;95392.47;4986774;28;20225;-74
2021/08/17 07:40:33;;;;;;;1999.90;999.90;;;;;;;27.81;37.37;95392.25;4986687;28;20675;-74
2021/08/17 07:43:00;;;;;;;1999.90;999.90;;;;;;;28.00;37.69;95388.13;4986663;28;20206;-74
2021/08/17 07:45:29;;;;;;;1999.90;999.90;;;;;;;28.23;37.01;95396.16;4986621;28;20207;-74
2021/08/17 07:47:56;;;;;;;1999.90;999.90;;;;;;;28.50;35.33;95392.59;4986617;28;20210;-73
2021/08/17 07:50:23;;;;;;;1999.90;999.90;;;;;;;28.47;35.71;95390.75;4986272;28;20291;-73
2021/08/17 07:52:51;;;;;;;1999.90;999.90;;;;;;;28.28;35.50;95388.81;4986568;28;20260;-73
2021/08/17 07:55:18;;;;;;;1999.90;999.90;;;;;;;28.25;35.67;95382.38;4988020;28;20746;-73
2021/08/17 07:57:46;;;;;;;1999.90;999.90;;;;;;;28.54;35.69;95386.00;4989802;28;20238;-72
2021/08/17 08:00:15;;;;;;;1999.90;999.90;;;;;;;28.71;35.19;95378.81;4990105;28;20264;-72
2021/08/17 08:02:43;;;;;;;1999.90;999.90;;;;;;;28.80;35.13;95376.34;4989904;28;20207;-73
2021/08/17 08:05:11;;;;;;;1999.90;999.90;;;;;;;28.80;35.08;95375.59;4990107;28;20234;-74
2021/08/17 08:07:38;;;;;;;1999.90;999.90;;;;;;;28.82;35.43;95374.03;4989962;28;20208;-73
2021/08/17 08:10:06;;;;;;;1999.90;999.90;;;;;;;29.06;35.14;95372.75;4990058;28;20203;-74
2021/08/17 08:12:33;;;;;;;1999.90;999.90;;;;;;;29.20;34.78;95369.00;4989569;28;20235;-76
2021/08/17 08:15:01;;;;;;;1999.90;999.90;;;;;;;29.28;34.12;95372.28;4989545;28;20625;-75
2021/08/17 08:17:28;;;;;;;1999.90;999.90;;;;;;;29.35;34.50;95372.13;4989550;28;20227;-76
2021/08/17 08:19:56;;;;;;;1999.90;999.90;;;;;;;29.49;33.92;95366.44;4989939;28;20203;-75
2021/08/17 08:22:24;;;;;;;1999.90;999.90;;;;;;;29.61;33.59;95368.47;4989484;28;20203;-74
2021/08/17 08:24:51;;;;;;;1999.90;999.90;;;;;;;29.39;33.41;95368.19;4989799;28;20741;-76
2021/08/17 08:27:18;;;;;;;1999.90;999.90;;;;;;;29.31;34.30;95358.06;4989476;28;20231;-76
2021/08/17 08:29:45;;;;;;;1999.90;999.90;;;;;;;29.33;33.60;95358.44;4986651;28;20200;-75
2021/08/17 08:32:12;;;;;;;1999.90;999.90;;;;;;;29.34;35.60;95354.59;4981028;28;20211;-76
2021/08/17 08:34:40;;;;;;;1999.90;999.90;;;;;;;29.49;33.49;95343.09;4989775;28;20221;-76
2021/08/17 08:37:08;;;;;;;1999.90;999.90;;;;;;;29.71;33.68;95353.31;4989553;28;20683;-76
2021/08/17 08:39:36;;;;;;;1999.90;999.90;;;;;;;29.90;33.51;95349.78;4989725;28;20195;-75
2021/08/17 08:42:03;;;;;;;1999.90;999.90;;;;;;;29.94;32.08;95353.88;4989522;28;20203;-75
2021/08/17 08:44:31;;;;;;;1999.90;999.90;;;;;;;30.02;34.25;95342.97;4989305;28;20264;-76
2021/08/17 08:46:58;;;;;;;1999.90;999.90;;;;;;;30.29;32.79;95341.47;4989493;28;20639;-76
2021/08/17 08:49:26;;;;;;;1999.90;999.90;;;;;;;30.54;31.08;95338.13;4989040;28;20288;-75
2021/08/17 08:51:54;;;;;;;1999.90;999.90;;;;;;;30.59;31.30;95337.59;4989045;28;20199;-76
2021/08/17 08:54:22;;;;;;;1999.90;999.90;;;;;;;30.61;32.16;95337.19;4988981;28;20211;-75
2021/08/17 08:56:50;;;;;;;1999.90;999.90;;;;;;;30.60;32.49;95339.09;4989374;28;20207;-75
2021/08/17 08:59:17;;;;;;;1999.90;999.90;;;;;;;30.78;32.05;95339.34;4989055;28;20317;-75
2021/08/17 09:01:46;;;;;;;1999.90;999.90;;;;;;;30.78;31.91;95333.25;4988868;28;20207;-74
2021/08/17 09:04:16;;;;;;;1999.90;999.90;;;;;;;30.95;32.37;95331.97;4988928;28;20679;-75
2021/08/17 09:06:52;;;;;;;1999.90;999.90;;;;;;;30.98;30.98;95325.00;4988066;28;20233;-74
2021/08/17 09:09:20;;;;;;;1999.90;999.90;;;;;;;31.08;30.84;95329.31;4988819;28;20630;-73
2021/08/17 09:11:50;;;;;;;1999.90;999.90;;;;;;;30.64;31.32;95323.66;4988710;28;20207;-76
2021/08/17 09:14:20;;;;;;;1999.90;999.90;;;;;;;30.89;31.25;95324.84;4989215;28;20669;-76
2021/08/17 09:16:48;;;;;;;1999.90;999.90;;;;;;;31.11;30.11;95315.78;4989443;28;20674;-76
2021/08/17 09:19:40;;;;;;;1999.90;999.90;;;;;;;31.18;31.67;95314.81;4988504;28;20227;-76
2021/08/17 09:22:15;;;;;;;1999.90;999.90;;;;;;;31.24;30.18;95313.06;4993120;28;20614;-75
2021/08/17 09:24:44;;;;;;;1999.90;999.90;;;;;;;31.41;29.72;95316.38;4988659;28;20685;-75
2021/08/17 09:27:16;;;;;;;1999.90;999.90;;;;;;;31.24;30.16;95315.00;4988597;28;20195;-75
2021/08/17 09:29:45;;;;;;;1999.90;999.90;;;;;;;31.27;29.85;95306.84;4988820;28;20266;-73
2021/08/17 09:32:15;;;;;;;1999.90;999.90;;;;;;;31.43;30.31;95306.69;4988715;28;20199;-75
2021/08/17 09:34:45;;;;;;;1999.90;999.90;;;;;;;31.45;31.07;95308.97;4988785;28;20223;-75
2021/08/17 09:37:12;;;;;;;1999.90;999.90;;;;;;;31.39;31.83;95310.69;4988719;28;20297;-77
2021/08/17 09:39:44;;;;;;;1999.90;999.90;;;;;;;31.41;31.60;95313.69;4988282;28;20203;-76
2021/08/17 09:42:19;;;;;;;1999.90;999.90;;;;;;;31.76;30.11;95309.13;4988338;28;20230;-76
2021/08/17 09:44:49;;;;;;;1999.90;999.90;;;;;;;31.76;30.23;95306.44;4988256;28;20194;-76
2021/08/17 09:47:16;;;;;;;1999.90;999.90;;;;;;;31.84;30.20;95296.94;4988756;28;20209;-76
2021/08/17 09:49:43;;;;;;;1999.90;999.90;;;;;;;31.85;29.63;95293.06;4988262;28;20242;-75
2021/08/17 09:52:16;;;;;;;1999.90;999.90;;;;;;;32.02;31.26;95292.47;4988513;28;20199;-75
2021/08/17 09:54:44;;;;;;;1999.90;999.90;;;;;;;32.08;32.14;95289.94;4988577;28;20196;-76
2021/08/17 09:57:12;;;;;;;1999.90;999.90;;;;;;;32.11;30.97;95286.44;4988321;28;20226;-76
2021/08/17 09:59:43;;;;;;;1999.90;999.90;;;;;;;32.21;31.28;95279.16;4988111;28;20229;-73
2021/08/17 10:02:11;;;;;;;1999.90;999.90;;;;;;;32.32;30.48;95282.22;4988399;28;20179;-76
2021/08/17 10:04:40;;;;;;;1999.90;999.90;;;;;;;32.37;29.43;95285.13;4988521;28;20211;-76
2021/08/17 10:07:09;;;;;;;1999.90;999.90;;;;;;;32.34;30.75;95274.47;4988121;28;20196;-76
2021/08/17 10:09:37;;;;;;;1999.90;999.90;;;;;;;32.40;30.17;95283.47;4987709;28;20634;-76
2021/08/17 10:12:06;;;;;;;1999.90;999.90;;;;;;;32.18;30.12;95274.69;4988103;28;20937;-74
2021/08/17 10:14:35;;;;;;;1999.90;999.90;;;;;;;32.12;30.71;95271.81;4987843;28;20206;-75
2021/08/17 10:17:04;;;;;;;1999.90;999.90;;;;;;;32.26;31.03;95268.59;4988086;28;20203;-76
2021/08/17 10:19:34;;;;;;;1999.90;999.90;;;;;;;32.41;30.92;95274.97;4986718;28;21003;-75
2021/08/17 10:22:06;;;;;;;1999.90;999.90;;;;;;;32.46;29.92;95260.19;4988262;28;20248;-74
2021/08/17 10:24:35;;;;;;;1999.90;999.90;;;;;;;32.64;30.92;95265.66;4987817;28;20686;-76
2021/08/17 10:27:17;;;;;;;1999.90;999.90;;;;;;;32.68;30.47;95260.91;4987795;28;20667;-75
2021/08/17 10:29:57;;;;;;;1999.90;999.90;;;;;;;32.94;30.88;95244.53;4987636;28;20203;-75
2021/08/17 10:32:53;;;;;;;1999.90;999.90;;;;;;;33.40;28.88;95245.41;4986199;28;20199;-76
2021/08/17 10:35:59;;;;;;;1999.90;999.90;;;;;;;33.34;29.83;95241.81;4987553;28;20636;-76
2021/08/17 10:38:49;;;;;;;1999.90;999.90;;;;;;;33.53;29.32;95235.22;4966598;28;20230;-76
2021/08/17 10:41:26;;;;;;;1999.90;999.90;;;;;;;33.23;31.34;95239.53;4987597;28;20195;-76
2021/08/17 10:44:17;;;;;;;1999.90;999.90;;;;;;;33.41;31.30;95239.59;4987362;28;20726;-76
2021/08/17 10:47:03;;;;;;;1999.90;999.90;;;;;;;33.42;31.14;95234.94;4987591;28;20199;-75
2021/08/17 10:49:49;;;;;;;1999.90;999.90;;;;;;;33.73;30.94;95228.22;4987722;28;20227;-75
2021/08/17 10:52:39;;;;;;;1999.90;999.90;;;;;;;34.06;28.15;95222.97;4987609;28;20183;-75
2021/08/17 10:55:36;;;;;;;1999.90;999.90;;;;;;;34.17;27.96;95221.75;4987698;28;20192;-75
2021/08/17 10:58:06;;;;;;;1999.90;999.90;;;;;;;34.16;29.25;95212.91;4987102;28;20219;-75
2021/08/17 11:00:54;;;;;;;1999.90;999.90;;;;;;;34.31;26.92;95210.34;4987581;28;20199;-75